createdAt,value
2018-02-02T00:01:12.443Z,8.40
2018-02-02T00:03:38.941Z,8.50
2018-02-02T00:06:05.532Z,8.50
2018-02-02T00:08:31.924Z,8.40
2018-02-02T00:10:58.613Z,8.50
2018-02-02T00:13:25.160Z,8.60
2018-02-02T00:15:51.672Z,8.40
2018-02-02T00:18:18.232Z,8.40
2018-02-02T00:20:45.368Z,8.30
2018-02-02T00:23:11.908Z,8.40
2018-02-02T00:25:38.415Z,8.50
2018-02-02T00:28:05.208Z,8.50
2018-02-02T00:30:31.809Z,8.50
2018-02-02T00:32:58.294Z,8.30
2018-02-02T00:35:24.663Z,8.10
2018-02-02T00:37:51.044Z,8.20
2018-02-02T00:40:17.583Z,8.30
2018-02-02T00:42:44.121Z,8.50
2018-02-02T00:45:10.980Z,8.50
2018-02-02T00:47:37.483Z,8.50
2018-02-02T00:50:04.055Z,8.60
2018-02-02T00:52:31.240Z,8.60
2018-02-02T00:54:58.085Z,8.60
2018-02-02T00:57:24.575Z,8.50
2018-02-02T00:59:51.157Z,8.60
2018-02-02T01:02:17.535Z,8.60
2018-02-02T01:04:44.236Z,8.50
2018-02-02T01:07:11.076Z,8.60
2018-02-02T01:09:37.847Z,8.80
2018-02-02T01:12:04.396Z,8.60
2018-02-02T01:14:30.939Z,8.40
2018-02-02T01:16:57.816Z,8.30
2018-02-02T01:19:24.315Z,8.40
2018-02-02T01:21:50.838Z,8.50
2018-02-02T01:24:18.179Z,8.50
2018-02-02T01:26:45.180Z,8.50
2018-02-02T01:29:11.728Z,8.40
2018-02-02T01:31:38.207Z,8.40
2018-02-02T01:34:04.736Z,8.60
2018-02-02T01:36:31.300Z,8.60
2018-02-02T01:38:57.739Z,8.50
2018-02-02T01:41:24.729Z,8.60
2018-02-02T01:43:51.228Z,8.60
2018-02-02T01:46:17.801Z,8.60
2018-02-02T01:48:44.324Z,8.60
2018-02-02T01:51:11.028Z,8.60
2018-02-02T01:53:37.707Z,8.80
2018-02-02T01:56:04.261Z,8.70
2018-02-02T01:58:30.764Z,8.80
2018-02-02T02:00:57.284Z,8.80
2018-02-02T02:03:24.148Z,8.70
2018-02-02T02:05:50.519Z,8.60
2018-02-02T02:08:17.200Z,8.50
2018-02-02T02:10:43.992Z,8.50
2018-02-02T02:13:11.628Z,8.50
2018-02-02T02:15:38.631Z,8.60
2018-02-02T02:18:05.143Z,8.70
2018-02-02T02:20:32.060Z,8.70
2018-02-02T02:22:58.528Z,8.70
2018-02-02T02:25:25.177Z,8.60
2018-02-02T02:27:51.587Z,8.50
2018-02-02T02:30:18.112Z,8.50
2018-02-02T02:32:44.545Z,8.40
2018-02-02T02:35:11.256Z,8.50
2018-02-02T02:37:38.755Z,8.60
2018-02-02T02:40:05.167Z,8.60
2018-02-02T02:42:31.766Z,8.50
2018-02-02T02:44:58.255Z,8.50
2018-02-02T02:47:24.663Z,8.40
2018-02-02T02:49:51.327Z,8.40
2018-02-02T02:52:17.840Z,8.50
2018-02-02T02:54:44.384Z,8.50
2018-02-02T02:57:10.916Z,8.50
2018-02-02T02:59:37.327Z,8.60
2018-02-02T03:02:03.990Z,8.60
2018-02-02T03:04:30.853Z,8.70
2018-02-02T03:06:57.393Z,8.80
2018-02-02T03:09:23.924Z,8.70
2018-02-02T03:11:50.438Z,8.60
2018-02-02T03:14:17.322Z,8.60
2018-02-02T03:16:43.872Z,8.60
2018-02-02T03:19:10.591Z,8.60
2018-02-02T03:21:37.222Z,8.70
2018-02-02T03:24:03.786Z,8.80
2018-02-02T03:26:30.521Z,8.80
2018-02-02T03:28:57.103Z,8.90
2018-02-02T03:31:23.639Z,8.80
2018-02-02T03:33:50.307Z,8.80
2018-02-02T03:36:16.711Z,8.70
2018-02-02T03:38:43.247Z,8.70
2018-02-02T03:41:09.794Z,8.60
2018-02-02T03:43:36.367Z,8.50
2018-02-02T03:46:02.920Z,8.50
2018-02-02T03:48:29.392Z,8.50
2018-02-02T03:50:55.970Z,8.40
2018-02-02T03:53:22.731Z,8.40
2018-02-02T03:55:49.310Z,8.30
2018-02-02T03:58:15.843Z,8.20
2018-02-02T04:00:42.432Z,8.30
2018-02-02T04:03:08.900Z,8.30
2018-02-02T04:05:35.513Z,8.20
2018-02-02T04:08:02.054Z,8.10
2018-02-02T04:10:28.580Z,8.00
2018-02-02T04:12:55.110Z,8.10
2018-02-02T04:15:21.579Z,8.20
2018-02-02T04:17:48.127Z,8.20
2018-02-02T04:20:14.572Z,8.30
2018-02-02T04:22:41.264Z,8.30
2018-02-02T04:25:07.772Z,8.30
2018-02-02T04:27:34.272Z,8.00
2018-02-02T04:30:00.800Z,7.90
2018-02-02T04:32:27.731Z,7.80
2018-02-02T04:35:00.133Z,7.70
2018-02-02T04:37:26.588Z,7.70
2018-02-02T04:39:52.989Z,7.70
2018-02-02T04:42:19.720Z,7.80
2018-02-02T04:44:46.208Z,8.00
2018-02-02T04:47:12.740Z,7.90
2018-02-02T04:49:39.293Z,7.80
2018-02-02T04:52:06.059Z,7.80
2018-02-02T04:54:32.603Z,7.80
2018-02-02T04:56:59.028Z,7.70
2018-02-02T04:59:25.784Z,7.60
2018-02-02T05:01:52.203Z,7.60
2018-02-02T05:04:18.824Z,7.60
2018-02-02T05:06:45.592Z,7.70
2018-02-02T05:09:12.184Z,7.70
2018-02-02T05:11:38.680Z,7.70
2018-02-02T05:14:05.183Z,7.90
2018-02-02T05:16:31.771Z,7.70
2018-02-02T05:18:58.600Z,7.70
2018-02-02T05:21:25.156Z,7.70
2018-02-02T05:23:51.956Z,7.70
2018-02-02T05:26:18.471Z,7.70
2018-02-02T05:28:45.127Z,7.70
2018-02-02T05:31:11.561Z,7.50
2018-02-02T05:33:38.087Z,7.40
2018-02-02T05:36:04.628Z,7.40
2018-02-02T05:38:31.208Z,7.30
2018-02-02T05:40:57.991Z,7.30
2018-02-02T05:43:24.523Z,7.40
2018-02-02T05:45:51.180Z,7.40
2018-02-02T05:48:17.667Z,7.40
2018-02-02T05:50:44.033Z,7.60
2018-02-02T05:53:11.052Z,7.40
2018-02-02T05:55:37.541Z,7.20
2018-02-02T05:58:04.056Z,7.10
2018-02-02T06:00:30.915Z,7.10
2018-02-02T06:02:57.415Z,7.20
2018-02-02T06:05:24.329Z,7.00
2018-02-02T06:07:50.864Z,6.80
2018-02-02T06:10:17.343Z,6.90
2018-02-02T06:12:43.964Z,6.80
2018-02-02T06:15:10.472Z,7.00
2018-02-02T06:17:36.887Z,7.20
2018-02-02T06:20:03.472Z,7.30
2018-02-02T06:22:30.080Z,7.40
2018-02-02T06:24:56.620Z,7.50
2018-02-02T06:27:23.139Z,7.60
2018-02-02T06:29:49.994Z,7.80
2018-02-02T06:32:16.456Z,7.90
2018-02-02T06:34:43.360Z,8.00
2018-02-02T06:37:09.836Z,8.10
2018-02-02T06:39:36.433Z,8.10
2018-02-02T06:42:03.045Z,8.10
2018-02-02T06:44:29.796Z,8.20
2018-02-02T06:46:56.632Z,8.10
2018-02-02T06:49:23.200Z,8.10
2018-02-02T06:51:49.701Z,8.20
2018-02-02T06:54:16.499Z,8.30
2018-02-02T06:56:43.044Z,8.40
2018-02-02T06:59:09.576Z,8.60
2018-02-02T07:01:36.100Z,8.70
2018-02-02T07:04:02.716Z,8.50
2018-02-02T07:06:29.179Z,8.60
2018-02-02T07:08:55.780Z,8.70
2018-02-02T07:11:22.155Z,8.80
2018-02-02T07:13:48.863Z,8.80
2018-02-02T07:16:15.632Z,8.90
2018-02-02T07:18:42.164Z,9.00
2018-02-02T07:21:08.756Z,9.00
2018-02-02T07:23:35.238Z,9.00
2018-02-02T07:26:02.064Z,9.00
2018-02-02T07:28:28.635Z,9.10
2018-02-02T07:30:55.454Z,9.20
2018-02-02T07:33:22.044Z,9.30
2018-02-02T07:35:48.592Z,9.30
2018-02-02T07:38:15.115Z,9.40
2018-02-02T07:40:41.627Z,9.30
2018-02-02T07:43:08.156Z,9.10
2018-02-02T07:45:34.680Z,9.10
2018-02-02T07:48:01.217Z,9.20
2018-02-02T07:50:28.092Z,9.30
2018-02-02T07:52:54.571Z,9.30
2018-02-02T07:55:21.174Z,9.30
2018-02-02T07:57:47.756Z,9.30
2018-02-02T08:00:14.810Z,9.30
2018-02-02T08:02:41.264Z,9.40
2018-02-02T08:05:07.636Z,9.50
2018-02-02T08:07:34.143Z,9.50
2018-02-02T08:10:00.647Z,9.70
2018-02-02T08:12:27.155Z,9.80
2018-02-02T08:14:53.698Z,9.90
2018-02-02T08:17:20.298Z,10.00
2018-02-02T08:19:46.828Z,10.10
2018-02-02T08:22:13.295Z,10.10
2018-02-02T08:24:39.963Z,10.30
2018-02-02T08:27:06.448Z,11.00
2018-02-02T08:29:32.918Z,11.30
2018-02-02T08:31:59.290Z,11.30
2018-02-02T08:34:26.044Z,11.20
2018-02-02T08:36:52.526Z,11.20
2018-02-02T08:39:19.120Z,11.20
2018-02-02T08:41:45.755Z,11.10
2018-02-02T08:44:14.332Z,11.00
2018-02-02T08:46:40.805Z,10.80
2018-02-02T08:49:07.344Z,10.70
2018-02-02T08:51:33.872Z,10.60
2018-02-02T08:54:00.784Z,10.40
2018-02-02T08:56:27.257Z,10.40
2018-02-02T08:58:54.164Z,10.40
2018-02-02T09:01:26.792Z,10.40
2018-02-02T09:03:53.328Z,10.50
2018-02-02T09:06:19.858Z,10.60
2018-02-02T09:08:46.371Z,10.60
2018-02-02T09:11:12.907Z,10.60
2018-02-02T09:13:39.509Z,10.40
2018-02-02T09:16:06.047Z,10.50
2018-02-02T09:18:32.828Z,10.50
2018-02-02T09:20:59.676Z,10.30
2018-02-02T09:23:26.213Z,10.10
2018-02-02T09:25:52.731Z,10.20
2018-02-02T09:28:19.276Z,10.20
2018-02-02T09:30:45.888Z,10.20
2018-02-02T09:33:12.343Z,10.30
2018-02-02T09:35:38.878Z,10.40
2018-02-02T09:38:05.467Z,10.50
2018-02-02T09:40:32.061Z,10.60
2018-02-02T09:42:58.592Z,10.80
2018-02-02T09:45:25.015Z,10.90
2018-02-02T09:47:51.564Z,11.00
2018-02-02T09:50:18.172Z,11.20
2018-02-02T09:52:44.644Z,11.40
2018-02-02T09:55:11.030Z,12.20
2018-02-02T09:57:37.772Z,13.70
2018-02-02T10:00:04.288Z,15.70
2018-02-02T10:02:30.769Z,17.50
2018-02-02T10:04:57.299Z,18.40
2018-02-02T10:07:24.168Z,18.20
2018-02-02T10:09:50.752Z,19.00
2018-02-02T10:12:17.298Z,20.00
2018-02-02T10:14:43.852Z,20.90
2018-02-02T10:17:10.294Z,21.30
2018-02-02T10:19:37.123Z,21.70
2018-02-02T10:22:03.568Z,22.40
2018-02-02T10:24:30.289Z,23.00
2018-02-02T10:26:57.108Z,23.40
2018-02-02T10:29:23.604Z,23.60
2018-02-02T10:31:50.184Z,24.20
2018-02-02T10:34:16.676Z,24.90
2018-02-02T10:36:43.547Z,25.70
2018-02-02T10:39:10.013Z,26.30
2018-02-02T10:41:36.864Z,26.70
2018-02-02T10:44:03.444Z,27.00
2018-02-02T10:46:29.948Z,27.10
2018-02-02T10:48:56.328Z,27.00
2018-02-02T10:51:23.008Z,26.80
2018-02-02T10:53:49.583Z,27.00
2018-02-02T10:56:16.063Z,27.30
2018-02-02T10:58:42.624Z,27.40
2018-02-02T11:01:15.192Z,27.60
2018-02-02T11:03:56.781Z,27.30
2018-02-02T11:06:23.502Z,27.00
2018-02-02T11:08:49.997Z,26.40
2018-02-02T11:11:17.743Z,26.20
2018-02-02T11:13:44.136Z,26.10
2018-02-02T11:16:10.812Z,25.70
2018-02-02T11:18:37.323Z,25.50
2018-02-02T11:21:03.928Z,25.60
2018-02-02T11:23:30.395Z,25.40
2018-02-02T11:25:56.988Z,24.80
2018-02-02T11:28:23.604Z,23.40
2018-02-02T11:30:49.983Z,22.60
2018-02-02T11:33:16.541Z,22.20
2018-02-02T11:35:43.464Z,21.80
2018-02-02T11:38:09.972Z,21.80
2018-02-02T11:40:36.572Z,21.80
2018-02-02T11:43:02.988Z,21.20
2018-02-02T11:45:29.532Z,20.40
2018-02-02T11:47:56.124Z,19.60
2018-02-02T11:50:22.656Z,19.60
2018-02-02T11:52:49.191Z,19.70
2018-02-02T11:55:15.643Z,19.80
2018-02-02T11:57:42.455Z,20.00
2018-02-02T12:00:09.106Z,19.90
2018-02-02T12:02:35.567Z,19.90
2018-02-02T12:05:02.108Z,20.00
2018-02-02T12:07:28.752Z,19.80
2018-02-02T12:09:55.175Z,19.60
2018-02-02T12:12:21.764Z,19.40
2018-02-02T12:14:48.230Z,19.20
2018-02-02T12:17:14.884Z,19.00
2018-02-02T12:19:41.363Z,19.00
2018-02-02T12:22:13.811Z,18.80
2018-02-02T12:24:46.204Z,18.60
2018-02-02T12:40:34.143Z,17.80
2018-02-02T12:43:00.676Z,17.50
2018-02-02T12:45:27.148Z,17.50
2018-02-02T12:47:59.703Z,17.50
2018-02-02T12:50:33.781Z,17.10
2018-02-02T12:53:00.412Z,17.00
2018-02-02T12:55:26.929Z,16.80
2018-02-02T12:57:53.331Z,16.70
2018-02-02T13:00:19.868Z,16.70
2018-02-02T13:02:46.496Z,16.70
2018-02-02T13:05:12.957Z,16.40
2018-02-02T13:07:39.554Z,16.10
2018-02-02T13:10:06.024Z,15.80
2018-02-02T13:12:32.600Z,15.80
2018-02-02T13:14:59.136Z,15.50
2018-02-02T13:17:25.923Z,15.60
2018-02-02T13:19:52.291Z,15.70
2018-02-02T13:22:19.672Z,15.70
2018-02-02T13:24:46.144Z,15.80
2018-02-02T13:27:12.672Z,15.70
2018-02-02T13:29:39.620Z,15.70
2018-02-02T13:32:06.100Z,15.70
2018-02-02T13:34:32.615Z,15.70
2018-02-02T13:36:59.200Z,15.60
2018-02-02T13:39:25.754Z,15.50
2018-02-02T13:41:52.195Z,15.70
2018-02-02T13:44:18.791Z,15.90
2018-02-02T13:46:45.144Z,16.20
2018-02-02T13:49:11.876Z,16.10
2018-02-02T13:51:38.409Z,16.00
2018-02-02T13:54:04.889Z,15.80
2018-02-02T13:56:31.410Z,15.80
2018-02-02T13:58:57.996Z,15.70
2018-02-02T14:01:24.796Z,15.80
2018-02-02T14:03:51.343Z,16.00
2018-02-02T14:06:17.972Z,16.10
2018-02-02T14:08:44.469Z,16.30
2018-02-02T14:11:10.891Z,16.40
2018-02-02T14:13:37.256Z,16.70
2018-02-02T14:16:04.383Z,16.80
2018-02-02T14:18:30.850Z,17.00
2018-02-02T14:20:57.199Z,17.10
2018-02-02T14:23:23.603Z,17.00
2018-02-02T14:25:50.145Z,17.00
2018-02-02T14:28:17.061Z,17.00
2018-02-02T14:30:43.519Z,17.00
2018-02-02T14:33:10.132Z,16.80
2018-02-02T14:35:36.641Z,16.70
2018-02-02T14:38:03.120Z,16.40
2018-02-02T14:40:29.495Z,16.20
2018-02-02T14:42:56.508Z,16.00
2018-02-02T14:45:23.438Z,15.70
2018-02-02T14:50:39.196Z,15.40
2018-02-02T14:53:05.688Z,15.20
2018-02-02T14:55:32.229Z,15.30
2018-02-02T14:57:58.774Z,15.20
2018-02-02T15:00:25.406Z,14.90
2018-02-02T15:02:51.872Z,14.90
2018-02-02T15:05:18.304Z,14.80
2018-02-02T15:07:44.948Z,14.70
2018-02-02T15:10:11.748Z,14.70
2018-02-02T15:12:38.300Z,14.60
2018-02-02T15:15:05.273Z,14.60
2018-02-02T15:17:31.959Z,14.70
2018-02-02T15:19:58.560Z,14.50
2018-02-02T15:22:25.424Z,14.50
2018-02-02T15:24:51.972Z,14.50
2018-02-02T15:27:19.091Z,14.40
2018-02-02T15:29:45.555Z,14.50
2018-02-02T15:32:11.924Z,14.50
2018-02-02T15:34:38.388Z,14.50
2018-02-02T15:37:04.973Z,14.50
2018-02-02T15:39:31.464Z,14.60
2018-02-02T15:41:57.984Z,14.40
2018-02-02T15:44:24.455Z,14.40
2018-02-02T15:46:50.996Z,14.40
2018-02-02T15:49:17.387Z,14.40
2018-02-02T15:51:44.124Z,14.40
2018-02-02T15:54:10.641Z,14.40
2018-02-02T15:56:38.673Z,14.40
2018-02-02T15:59:05.039Z,14.50
2018-02-02T16:01:31.427Z,14.40
2018-02-02T16:03:58.277Z,14.30
2018-02-02T16:06:24.812Z,14.20
2018-02-02T16:08:51.351Z,14.10
2018-02-02T16:11:17.988Z,14.00
2018-02-02T16:13:44.416Z,13.90
2018-02-02T16:16:11.247Z,13.70
2018-02-02T16:18:38.159Z,13.50
2018-02-02T16:21:04.628Z,13.50
2018-02-02T16:23:31.164Z,13.50
2018-02-02T16:25:57.630Z,13.50
2018-02-02T16:28:24.271Z,13.60
2018-02-02T16:30:51.077Z,13.50
2018-02-02T16:33:18.500Z,13.50
2018-02-02T16:35:45.172Z,13.50
2018-02-02T16:38:11.644Z,13.60
2018-02-02T16:40:38.143Z,13.60
2018-02-02T16:43:04.676Z,13.60
2018-02-02T16:45:31.315Z,13.30
2018-02-02T16:47:57.820Z,13.20
2018-02-02T16:50:24.402Z,13.20
2018-02-02T16:52:50.776Z,13.00
2018-02-02T16:55:18.376Z,12.90
2018-02-02T16:57:44.859Z,12.90
2018-02-02T17:00:11.668Z,13.00
2018-02-02T17:02:38.183Z,13.00
2018-02-02T17:05:04.778Z,12.80
2018-02-02T17:07:31.360Z,12.60
2018-02-02T17:09:57.943Z,12.60
2018-02-02T17:12:24.416Z,12.50
2018-02-02T17:14:50.919Z,12.40
2018-02-02T17:17:17.456Z,12.50
2018-02-02T17:19:43.836Z,12.60
2018-02-02T17:22:10.572Z,12.50
2018-02-02T17:24:37.021Z,12.50
2018-02-02T17:27:03.543Z,12.30
2018-02-02T17:29:30.148Z,12.20
2018-02-02T17:31:56.667Z,12.00
2018-02-02T17:34:23.164Z,12.20
2018-02-02T17:36:49.683Z,12.30
2018-02-02T17:39:16.280Z,12.20
2018-02-02T17:41:42.747Z,12.20
2018-02-02T17:44:09.368Z,12.00
2018-02-02T17:46:35.847Z,12.20
2018-02-02T17:49:02.972Z,12.10
2018-02-02T17:51:29.523Z,12.20
2018-02-02T17:53:56.031Z,12.10
2018-02-02T17:56:22.949Z,12.00
2018-02-02T17:58:49.484Z,12.10
2018-02-02T18:01:30.899Z,11.90
2018-02-02T18:03:57.579Z,11.80
2018-02-02T18:06:24.063Z,11.90
2018-02-02T18:08:50.902Z,12.10
2018-02-02T18:11:17.820Z,12.30
2018-02-02T18:13:44.299Z,12.40
2018-02-02T18:16:10.878Z,12.40
2018-02-02T18:18:37.731Z,12.30
2018-02-02T18:21:04.300Z,12.30
2018-02-02T18:23:30.795Z,12.40
2018-02-02T18:25:57.283Z,12.40
2018-02-02T18:28:24.120Z,12.50
2018-02-02T18:30:50.724Z,12.50
2018-02-02T18:33:17.165Z,12.60
2018-02-02T18:35:43.576Z,12.60
2018-02-02T18:38:09.975Z,12.50
2018-02-02T18:40:36.560Z,12.50
2018-02-02T18:43:03.104Z,12.40
2018-02-02T18:45:29.552Z,12.40
2018-02-02T18:47:56.099Z,12.50
2018-02-02T18:50:22.632Z,12.50
2018-02-02T18:52:49.055Z,12.60
2018-02-02T18:55:15.688Z,12.70
2018-02-02T18:57:42.223Z,12.60
2018-02-02T19:00:09.099Z,12.60
2018-02-02T19:02:35.470Z,12.80
2018-02-02T19:05:01.880Z,12.90
2018-02-02T19:07:28.374Z,12.80
2018-02-02T19:09:54.944Z,12.90
2018-02-02T19:12:21.447Z,12.80
2018-02-02T19:14:47.967Z,13.00
2018-02-02T19:17:14.568Z,13.00
2018-02-02T19:19:40.976Z,13.10
2018-02-02T19:22:07.627Z,13.20
2018-02-02T19:24:34.119Z,13.10
2018-02-02T19:27:00.716Z,13.20
2018-02-02T19:29:27.177Z,13.20
2018-02-02T19:31:53.728Z,13.30
2018-02-02T19:34:20.300Z,13.20
2018-02-02T19:36:46.711Z,13.10
2018-02-02T19:39:13.676Z,13.20
2018-02-02T19:41:40.167Z,13.20
2018-02-02T19:44:06.707Z,13.10
2018-02-02T19:46:33.122Z,13.00
2018-02-02T19:48:59.792Z,13.10
2018-02-02T19:51:26.380Z,13.10
2018-02-02T19:53:52.839Z,13.20
2018-02-02T19:56:19.444Z,13.20
2018-02-02T19:58:46.328Z,13.20
2018-02-02T20:01:12.756Z,13.20
2018-02-02T20:03:39.353Z,13.00
2018-02-02T20:06:05.836Z,12.80
2018-02-02T20:08:32.428Z,12.60
2018-02-02T20:10:59.082Z,12.70
2018-02-02T20:13:25.884Z,12.80
2018-02-02T20:15:52.274Z,12.80
2018-02-02T20:18:18.880Z,12.90
2018-02-02T20:20:45.456Z,12.80
2018-02-02T20:23:12.503Z,12.90
2018-02-02T20:25:39.041Z,13.00
2018-02-02T20:28:05.650Z,13.10
2018-02-02T20:30:32.098Z,13.10
2018-02-02T20:32:58.708Z,13.10
2018-02-02T20:35:25.173Z,13.10
2018-02-02T20:37:51.728Z,13.20
2018-02-02T20:40:18.107Z,13.20
2018-02-02T20:42:44.832Z,13.20
2018-02-02T20:45:11.372Z,13.30
2018-02-02T20:47:37.859Z,13.30
2018-02-02T20:50:04.426Z,13.40
2018-02-02T20:52:32.184Z,13.40
2018-02-02T20:54:58.796Z,13.40
2018-02-02T20:57:25.218Z,13.30
2018-02-02T20:59:51.818Z,13.40
2018-02-02T21:02:18.301Z,13.40
2018-02-02T21:04:44.888Z,13.40
2018-02-02T21:07:11.300Z,13.30
2018-02-02T21:09:37.936Z,13.40
2018-02-02T21:12:04.432Z,13.50
2018-02-02T21:14:31.020Z,13.40
2018-02-02T21:16:57.568Z,13.40
2018-02-02T21:19:24.079Z,13.40
2018-02-02T21:21:50.585Z,13.50
2018-02-02T21:24:16.944Z,13.60
2018-02-02T21:26:43.444Z,13.60
2018-02-02T21:29:09.915Z,13.70
2018-02-02T21:31:36.703Z,13.70
2018-02-02T21:34:03.235Z,13.70
2018-02-02T21:36:29.803Z,13.70
2018-02-02T21:38:56.313Z,13.60
2018-02-02T21:41:22.856Z,13.60
2018-02-02T21:43:49.388Z,13.60
2018-02-02T21:46:15.759Z,13.70
2018-02-02T21:48:42.168Z,13.80
2018-02-02T21:51:08.648Z,13.70
2018-02-02T21:53:35.223Z,13.70
2018-02-02T21:56:03.116Z,13.90
2018-02-02T21:58:29.549Z,13.90
2018-02-02T22:00:56.178Z,14.00
2018-02-02T22:03:23.202Z,14.00
2018-02-02T22:05:49.816Z,13.90
2018-02-02T22:08:16.350Z,13.80
2018-02-02T22:10:42.827Z,13.80
2018-02-02T22:13:10.476Z,13.90
2018-02-02T22:15:37.486Z,14.00
2018-02-02T22:18:03.950Z,13.90
2018-02-02T22:20:30.520Z,13.90
2018-02-02T22:22:57.042Z,13.90
2018-02-02T22:25:23.571Z,13.90
2018-02-02T22:27:49.988Z,13.90
2018-02-02T22:30:16.655Z,13.90
2018-02-02T22:32:43.488Z,13.80
2018-02-02T22:35:09.997Z,13.90
2018-02-02T22:37:36.792Z,13.80
2018-02-02T22:40:03.388Z,13.80
2018-02-02T22:42:29.918Z,13.70
2018-02-02T22:44:56.465Z,13.70
2018-02-02T22:47:23.041Z,13.90
2018-02-02T22:49:49.531Z,13.90
2018-02-02T22:52:16.057Z,14.00
2018-02-02T22:54:42.583Z,14.10
2018-02-02T22:57:09.119Z,14.10
2018-02-02T22:59:35.679Z,13.90
2018-02-02T23:02:02.217Z,14.00
2018-02-02T23:04:28.754Z,14.00
2018-02-02T23:06:55.297Z,14.10
2018-02-02T23:09:23.348Z,14.00
2018-02-02T23:11:50.248Z,14.00
2018-02-02T23:14:16.731Z,14.00
2018-02-02T23:16:43.295Z,14.00
2018-02-02T23:19:09.792Z,13.90
2018-02-02T23:21:36.323Z,14.00
2018-02-02T23:24:02.884Z,13.90
2018-02-02T23:26:29.406Z,13.70
2018-02-02T23:28:55.942Z,13.80
2018-02-02T23:31:22.799Z,13.90
2018-02-02T23:33:49.319Z,13.80
2018-02-02T23:36:16.183Z,13.70
2018-02-02T23:38:42.731Z,13.60
2018-02-02T23:41:09.243Z,13.60
2018-02-02T23:43:35.751Z,13.60
2018-02-02T23:46:02.621Z,13.60
2018-02-02T23:48:29.500Z,13.60
2018-02-02T23:50:56.320Z,13.40
2018-02-02T23:53:22.835Z,13.60
2018-02-02T23:55:49.357Z,13.60
2018-02-02T23:58:15.892Z,13.60
